Latest Weather Observations for Parndana

IDS60801

Issued at 11:35 pm CST Tuesday 30 September 2014 (issued every 30 minutes, with the page automatically refreshed every 10 minutes)

About weather observations | Map of weather stations | Latest weather observations for SA | Other Formats
Station Details ID: 022843 Name: PARNDANA CFS AWS Lat: -35.79 Lon: 137.25 Height: 165.0 m
Data from the previous 72 hours. | See also: Recent months at Parndana
Date/Time
CST
Temp
°C
App
Temp
°C
Dew
Point
Rel
Hum
%
Delta-T
°C
Wind Press
QNH
hPa
Press
MSL
hPa
Rain
since 9 am
mm
Dir
 
Spd
km/h
Gust
km/h
Spd
kts
Gust
kts
30/11:30pm 8.4 6.1 5.9 84 1.1 SW 7 9 4 5 - - 0.4
30/11:00pm 8.2 5.8 6.8 91 0.7 W 9 11 5 6 - - 0.4
30/10:30pm 8.0 5.7 5.6 85 1.1 WSW 7 9 4 5 - - 0.4
30/10:00pm 9.4 6.9 6.7 83 1.3 SW 9 13 5 7 - - 0.4
30/09:30pm 9.5 5.8 6.4 81 1.5 SW 15 19 8 10 - - 0.4
30/09:00pm 9.4 6.2 5.2 75 1.9 SW 11 15 6 8 - - 0.4
30/08:30pm 9.5 5.9 4.9 73 2.1 WSW 13 19 7 10 - - 0.4
30/08:00pm 10.0 6.3 4.4 68 2.5 WSW 13 20 7 11 - - 0.4
30/07:30pm 9.8 4.9 4.2 68 2.5 SW 19 28 10 15 - - 0.4
30/07:00pm 10.4 5.0 4.5 67 2.7 SW 22 32 12 17 - - 0.4
30/06:30pm 10.8 5.2 5.3 69 2.5 SW 24 33 13 18 - - 0.4
30/06:00pm 11.7 4.7 6.0 68 2.7 WSW 32 44 17 24 - - 0.4
30/05:30pm 12.3 6.2 6.8 69 2.7 WSW 28 41 15 22 - - 0.4
30/05:00pm 13.1 6.3 6.7 65 3.1 WSW 32 43 17 23 - - 0.4
30/04:30pm 14.3 6.9 6.9 61 3.6 WSW 35 52 19 28 - - 0.4
30/04:00pm 14.2 7.5 7.3 63 3.4 WSW 32 50 17 27 - - 0.4
30/03:35pm 13.2 6.4 7.6 69 2.8 WSW 33 52 18 28 - - 0.4
30/03:30pm 13.5 5.8 7.3 66 3.1 WSW 37 52 20 28 - - 0.4
30/03:12pm 14.9 8.9 7.2 60 3.8 WSW 28 46 15 25 - - 0.4
30/03:00pm 14.5 7.9 6.1 57 4.1 WSW 30 44 16 24 - - 0.4
30/02:30pm 14.8 7.6 6.1 56 4.2 WSW 33 50 18 27 - - 0.4
30/02:00pm 15.3 7.2 5.2 51 4.8 WSW 37 54 20 29 - - 0.4
30/01:33pm 15.6 7.4 6.6 55 4.4 WSW 39 57 21 31 - - 0.4
30/01:30pm 15.5 7.7 6.8 56 4.3 WSW 37 54 20 29 - - 0.4
30/01:00pm 15.5 7.8 7.0 57 4.2 WSW 37 59 20 32 - - 0.4
30/12:42pm 15.5 8.8 9.6 68 3.1 WSW 35 54 19 29 - - 0.4
30/12:30pm 14.7 8.2 10.5 76 2.2 WSW 35 50 19 27 - - 0.4
30/12:01pm 14.4 7.0 9.8 74 2.4 WSW 39 65 21 35 - - 0.4
30/12:00pm 15.3 8.7 11.5 78 2.1 W 37 50 20 27 - - 0.4
30/11:37am 14.7 8.8 12.4 86 1.3 WSW 35 54 19 29 - - 0.4
30/11:30am 13.6 6.6 11.1 85 1.3 WSW 39 57 21 31 - - 0.4
30/11:00am 13.0 5.1 10.9 87 1.1 WSW 43 61 23 33 - - 0.4
30/10:39am 14.4 6.4 10.6 78 2.0 W 43 61 23 33 - - 0.0
30/10:30am 15.2 7.6 10.6 74 2.4 W 41 56 22 30 - - 0.0
30/10:03am 15.2 7.1 10.2 72 2.6 W 43 63 23 34 - - 0.0
30/10:00am 15.5 7.3 10.5 72 2.7 W 44 61 24 33 - - 0.0
30/09:30am 15.5 6.7 10.9 74 2.5 W 48 65 26 35 - - 0.0
30/09:01am 15.3 7.5 11.7 79 2.0 W 44 65 24 35 - - 0.0
30/09:00am 15.1 6.7 11.1 77 2.1 W 46 65 25 35 - - 0.2
30/08:47am 14.6 8.9 11.7 83 1.6 W 33 54 18 29 - - 0.2
30/08:30am 14.0 9.5 11.5 85 1.3 W 26 37 14 20 - - 0.0
30/08:00am 15.0 10.3 12.1 83 1.6 WNW 28 43 15 23 - - 0.0
30/07:30am 14.3 8.7 11.5 83 1.5 WNW 32 44 17 24 - - 0.0
30/07:00am 13.8 8.1 11.3 85 1.3 W 32 48 17 26 - - 0.0
30/06:30am 13.8 9.3 11.5 86 1.2 WNW 26 41 14 22 - - 0.0
30/06:00am 13.2 9.0 11.1 87 1.1 WNW 24 32 13 17 - - 0.0
30/05:30am 12.8 9.5 10.9 88 1.0 NW 19 26 10 14 - - 0.0
30/05:00am 12.5 9.1 11.1 91 0.7 NW 20 26 11 14 - - 0.0
30/04:30am 12.6 9.5 11.5 93 0.6 NNW 19 26 10 14 - - 0.0
30/04:00am 12.1 10.1 11.5 96 0.3 NNW 13 22 7 12 - - 0.0
30/03:30am 11.5 10.1 10.9 96 0.3 NNW 9 13 5 7 - - 0.0
30/03:00am 11.7 9.5 10.8 94 0.5 N 13 15 7 8 - - 0.0
30/02:30am 11.4 9.4 10.1 92 0.7 NNW 11 13 6 7 - - 0.0
30/02:00am 11.7 9.9 10.9 95 0.4 NNW 11 13 6 7 - - 0.0
30/01:30am 12.0 10.7 11.1 94 0.5 NNW 9 15 5 8 - - 0.0
30/01:00am 12.6 10.7 11.7 94 0.5 NNW 13 19 7 10 - - 0.0
30/12:30am 13.0 10.7 11.7 92 0.7 NNW 15 19 8 10 - - 0.0
30/12:00am 13.4 9.8 11.8 90 0.9 NW 22 28 12 15 - - 0.0
 
Date/Time
CST
Temp
°C
App
Temp
°C
Dew
Point
Rel
Hum
%
Delta-T
°C
Wind Press
QNH
hPa
Press
MSL
hPa
Rain
since 9 am
mm
Dir
 
Spd
km/h
Gust
km/h
Spd
kts
Gust
kts
29/11:30pm 13.2 9.8 11.4 89 1.0 NW 20 28 11 15 - - 0.0
29/11:00pm 13.2 9.8 11.4 89 1.0 NW 20 26 11 14 - - 0.0
29/10:30pm 13.1 9.8 11.5 90 0.9 NW 20 28 11 15 - - 0.0
29/10:00pm 13.0 9.6 11.1 88 1.0 NW 20 26 11 14 - - 0.0
29/09:30pm 12.9 9.4 11.0 88 1.0 NW 20 28 11 15 - - 0.0
29/09:00pm 12.7 9.4 10.9 89 0.9 NW 19 24 10 13 - - 0.0
29/08:30pm 12.6 9.2 10.7 88 1.0 NW 19 24 10 13 - - 0.0
29/08:00pm 12.4 9.0 10.6 89 0.9 NW 19 26 10 14 - - 0.0
29/07:30pm 12.4 8.7 10.3 87 1.1 NW 20 26 11 14 - - 0.0
29/07:00pm 12.2 8.6 9.8 85 1.2 NW 19 24 10 13 - - 0.0
29/06:30pm 12.7 8.4 9.5 81 1.6 NW 22 30 12 16 - - 0.0
29/06:00pm 13.4 8.4 9.6 78 2.0 WNW 26 35 14 19 - - 0.0
29/05:30pm 14.1 9.4 9.3 73 2.5 WNW 24 33 13 18 - - 0.0
29/05:00pm 14.9 10.3 9.5 70 2.8 WNW 24 32 13 17 - - 0.0
29/04:30pm 15.3 10.0 9.7 69 2.9 NW 28 37 15 20 - - 0.0
29/04:00pm 15.4 10.8 9.5 68 3.1 NW 24 35 13 19 - - 0.0
29/03:30pm 15.5 10.8 9.4 67 3.2 NW 24 35 13 19 - - 0.0
29/03:00pm 15.4 9.4 10.0 70 2.8 NW 32 39 17 21 - - 0.0
29/02:30pm 15.9 10.3 10.2 69 3.0 NW 30 43 16 23 - - 0.0
29/02:00pm 15.7 10.6 9.1 65 3.4 NW 26 37 14 20 - - 0.0
29/01:30pm 15.4 11.2 11.0 75 2.4 NW 24 32 13 17 - - 0.0
29/01:00pm 16.0 11.0 9.7 66 3.3 NW 26 37 14 20 - - 0.0
29/12:30pm 16.1 10.7 9.5 65 3.5 NNW 28 39 15 21 - - 0.0
29/12:00pm 16.4 12.5 10.7 69 3.1 NNW 22 33 12 18 - - 0.0
29/11:30am 15.2 10.4 8.9 66 3.2 NW 24 33 13 18 - - 0.0
29/11:00am 15.2 10.9 9.3 68 3.1 NNW 22 30 12 16 - - 0.0
29/10:30am 15.7 11.5 9.8 68 3.1 NW 22 30 12 16 - - 0.0
29/10:00am 15.5 11.7 9.8 69 3.0 NW 20 32 11 17 - - 0.0
29/09:30am 14.4 11.5 9.6 73 2.5 WNW 15 22 8 12 - - 0.0
29/09:00am 14.5 11.2 9.5 72 2.6 WNW 17 30 9 16 - - 0.0
29/08:30am 14.0 11.1 9.6 75 2.3 W 15 20 8 11 - - 0.0
29/08:00am 13.2 11.4 9.5 78 1.9 W 9 17 5 9 - - 0.0
29/07:30am 11.9 10.7 9.6 86 1.2 WNW 6 7 3 4 - - 0.0
29/07:00am 10.1 8.5 8.7 91 0.7 NW 7 7 4 4 - - 0.0
29/06:30am 8.8 6.5 7.4 91 0.7 WNW 9 9 5 5 - - 0.0
29/06:00am 9.3 7.1 7.7 90 0.8 W 9 11 5 6 - - 0.0
29/05:30am 9.1 7.2 7.7 91 0.7 W 7 11 4 6 - - 0.0
29/05:00am 10.2 7.4 8.6 90 0.8 W 13 15 7 8 - - 0.0
29/04:30am 10.8 7.4 9.1 89 0.9 W 17 20 9 11 - - 0.0
29/04:00am 11.5 7.6 9.4 87 1.1 W 20 28 11 15 - - 0.0
29/03:30am 11.6 8.0 9.7 88 1.0 W 19 22 10 12 - - 0.0
29/03:00am 12.3 8.1 9.9 85 1.2 WNW 22 30 12 16 - - 0.0
29/02:30am 12.5 8.8 10.0 85 1.3 WNW 20 26 11 14 - - 0.0
29/02:00am 13.4 9.4 10.6 83 1.5 WNW 22 32 12 17 - - 0.0
29/01:30am 13.7 9.0 10.5 81 1.7 WNW 26 35 14 19 - - 0.0
29/01:00am 13.8 9.5 10.8 82 1.6 WNW 24 33 13 18 - - 0.0
29/12:30am 13.7 9.4 10.7 82 1.6 WNW 24 32 13 17 - - 0.0
29/12:00am 13.8 9.5 10.8 82 1.6 WNW 24 39 13 21 - - 0.0
 
Date/Time
CST
Temp
°C
App
Temp
°C
Dew
Point
Rel
Hum
%
Delta-T
°C
Wind Press
QNH
hPa
Press
MSL
hPa
Rain
since 9 am
mm
Dir
 
Spd
km/h
Gust
km/h
Spd
kts
Gust
kts
28/11:30pm 13.5 9.5 10.5 82 1.6 WNW 22 28 12 15 - - 0.0
28/11:00pm 13.5 10.2 10.9 84 1.4 WNW 19 26 10 14 - - 0.0
28/10:30pm 13.3 9.6 10.3 82 1.6 NW 20 26 11 14 - - 0.0
28/10:00pm 13.4 8.6 10.2 81 1.7 WNW 26 37 14 20 - - 0.0
28/09:30pm 13.2 7.5 9.8 80 1.8 WNW 30 46 16 25 - - 0.0
28/09:00pm 13.7 7.5 9.9 78 2.0 WNW 33 44 18 24 - - 0.0
28/08:30pm 13.7 8.0 9.9 78 2.0 WNW 30 43 16 23 - - 0.0
28/08:00pm 13.3 7.9 9.4 77 2.0 WNW 28 37 15 20 - - 0.0
28/07:30pm 13.2 8.2 9.6 79 1.9 WNW 26 35 14 19 - - 0.0
28/07:00pm 13.1 7.3 9.5 79 1.8 WNW 30 43 16 23 - - 0.0
28/06:30pm 13.4 6.2 9.1 75 2.2 W 37 52 20 28 - - 0.0
28/06:10pm 13.8 6.9 8.8 72 2.5 W 35 65 19 35 - - 0.0
28/06:00pm 14.1 8.1 8.5 69 2.8 W 30 46 16 25 - - 0.0
28/05:39pm 14.7 7.5 7.5 62 3.6 W 35 61 19 33 - - 0.0
28/05:30pm 14.9 7.7 7.7 62 3.6 W 35 46 19 25 - - 0.0
28/05:01pm 15.3 6.9 8.8 65 3.3 W 43 61 23 33 - - 0.0
28/05:00pm 15.3 6.6 8.5 64 3.5 W 44 61 24 33 - - 0.0
28/04:57pm 15.4 6.8 8.2 62 3.7 W 43 61 23 33 - - 0.0
28/04:30pm 16.1 8.0 8.6 61 3.9 W 41 56 22 30 - - 0.0
28/04:00pm 17.1 10.9 10.0 63 3.8 W 33 43 18 23 - - 0.0
28/03:30pm 17.5 10.5 8.4 55 4.7 W 35 46 19 25 - - 0.0
28/03:00pm 18.0 11.4 8.6 54 4.9 W 33 43 18 23 - - 0.0
28/02:30pm 17.9 10.5 9.8 59 4.3 W 39 48 21 26 - - 0.0
28/02:00pm 18.9 13.2 11.7 63 4.0 W 33 43 18 23 - - 0.0
28/01:30pm 19.5 12.7 10.5 56 4.9 W 37 48 20 26 - - 0.0
28/01:00pm 19.8 13.4 10.8 56 4.9 W 35 48 19 26 - - 0.0
28/12:30pm 20.4 16.0 12.9 62 4.3 WNW 28 41 15 22 - - 0.0
28/12:00pm 20.5 15.4 13.0 62 4.3 WNW 32 46 17 25 - - 0.0
28/11:30am 20.5 15.2 13.0 62 4.3 NW 33 46 18 25 - - 0.0
28/11:00am 20.3 15.5 13.0 63 4.2 NNW 30 39 16 21 - - 0.0
28/10:30am 20.6 16.3 13.3 63 4.2 NNW 28 43 15 23 - - 0.0
28/10:00am 20.2 15.3 12.7 62 4.3 NNW 30 46 16 25 - - 0.0
28/09:30am 19.6 13.8 11.6 60 4.4 NW 33 48 18 26 - - 0.0
28/09:00am 19.2 14.4 11.5 61 4.3 NNW 28 35 15 19 - - 0.0
28/08:30am 18.8 13.1 11.1 61 4.2 NNW 32 50 17 27 - - 0.0
28/08:23am 18.7 12.9 10.8 60 4.3 NNW 32 50 17 27 - - 0.0
28/08:00am 18.0 12.1 11.1 64 3.8 NNW 33 50 18 27 - - 0.0
28/07:35am 18.4 11.3 9.5 56 4.7 NNW 37 56 20 30 - - 0.0
28/07:30am 18.6 11.5 9.4 55 4.9 NNW 37 50 20 27 - - 0.0
28/07:17am 18.6 12.1 8.8 53 5.1 NNW 33 56 18 30 - - 0.0
28/07:00am 18.5 11.8 8.2 51 5.3 NNW 33 50 18 27 - - 0.0
28/06:40am 18.5 11.9 7.9 50 5.5 NNW 32 57 17 31 - - 0.0
28/06:30am 18.2 11.7 8.2 52 5.2 NNW 32 44 17 24 - - 0.0
28/06:00am 18.8 11.5 7.3 47 5.9 NNW 35 57 19 31 - - 0.0
28/05:31am 18.9 12.0 7.4 47 5.9 N 33 52 18 28 - - 0.0
28/05:30am 18.9 11.6 7.4 47 5.9 N 35 52 19 28 - - 0.0
28/05:10am 18.9 11.3 7.4 47 5.9 N 37 59 20 32 - - 0.0
28/05:00am 19.1 11.5 7.5 47 6.0 N 37 54 20 29 - - 0.0
28/04:30am 19.2 11.9 7.0 45 6.2 N 35 54 19 29 - - 0.0
28/04:00am 19.4 12.1 7.2 45 6.2 N 35 57 19 31 - - 0.0
28/03:31am 19.6 12.7 7.4 45 6.3 N 33 54 18 29 - - 0.0
28/03:30am 19.4 12.6 7.5 46 6.1 N 33 48 18 26 - - 0.0
28/03:08am 19.7 12.4 7.1 44 6.4 N 35 57 19 31 - - 0.0
28/03:00am 19.5 12.2 7.3 45 6.3 N 35 54 19 29 - - 0.0
28/02:30am 20.0 11.9 7.1 43 6.6 N 39 65 21 35 - - 0.0
28/02:00am 20.3 11.8 7.0 42 6.8 N 41 63 22 34 - - 0.0
28/01:30am 20.7 12.5 6.6 40 7.2 N 39 57 21 31 - - 0.0
28/01:15am 20.9 12.4 6.8 40 7.2 N 41 61 22 33 - - 0.0
28/01:00am 20.7 12.2 7.0 41 7.0 N 41 59 22 32 - - 0.0
28/12:37am 20.8 13.2 7.4 42 6.9 N 37 57 20 31 - - 0.0
28/12:30am 20.4 13.2 7.7 44 6.6 N 35 52 19 28 - - 0.0
28/12:25am 20.5 13.7 7.5 43 6.7 N 33 52 18 28 - - 0.0
28/12:00am 20.4 13.9 8.1 45 6.4 N 32 50 17 27 - - 0.0
 
Date/Time
CST
Temp
°C
App
Temp
°C
Dew
Point
Rel
Hum
%
Delta-T
°C
Wind Press
QNH
hPa
Press
MSL
hPa
Rain
since 9 am
mm
Dir
 
Spd
km/h
Gust
km/h
Spd
kts
Gust
kts
27/11:46pm 20.1 14.0 8.1 46 6.3 N 30 50 16 27 - - 0.0

Other Formats:

Comma delimited format used in spreadsheet applications
http://www.bom.gov.au/fwo/IDS60801/IDS60801.94807.axf

JavaScript Object Notation format (JSON) in row-major order
http://www.bom.gov.au/fwo/IDS60801/IDS60801.94807.json